sensor_id;sensor_type;location;lat;lon;timestamp;pressure;altitude;pressure_sealevel;temperature;humidity
71974;BME280;59840;52.122;5.404;2023-03-03T00:01:05;102686.47;;;0.09;100.00
71974;BME280;59840;52.122;5.404;2023-03-03T00:03:32;102691.22;;;0.04;100.00
71974;BME280;59840;52.122;5.404;2023-03-03T00:05:59;102684.94;;;0.06;100.00
71974;BME280;59840;52.122;5.404;2023-03-03T00:08:27;102684.13;;;0.06;100.00
71974;BME280;59840;52.122;5.404;2023-03-03T00:10:53;102687.56;;;0.06;100.00
71974;BME280;59840;52.122;5.404;2023-03-03T00:13:23;102694.38;;;0.07;100.00
71974;BME280;59840;52.122;5.404;2023-03-03T00:15:50;102686.72;;;0.06;100.00
71974;BME280;59840;52.122;5.404;2023-03-03T00:18:27;102680.84;;;0.04;100.00
71974;BME280;59840;52.122;5.404;2023-03-03T00:20:57;102682.75;;;0.02;100.00
71974;BME280;59840;52.122;5.404;2023-03-03T00:23:30;102685.63;;;-0.02;100.00
71974;BME280;59840;52.122;5.404;2023-03-03T00:25:57;102690.69;;;0.00;100.00
71974;BME280;59840;52.122;5.404;2023-03-03T00:28:26;102687.94;;;0.02;100.00
71974;BME280;59840;52.122;5.404;2023-03-03T00:30:58;102693.69;;;0.05;100.00
71974;BME280;59840;52.122;5.404;2023-03-03T00:33:32;102699.44;;;0.09;100.00
71974;BME280;59840;52.122;5.404;2023-03-03T00:36:35;102699.38;;;0.20;100.00
71974;BME280;59840;52.122;5.404;2023-03-03T00:39:33;102712.53;;;0.28;100.00
71974;BME280;59840;52.122;5.404;2023-03-03T00:42:01;102705.44;;;0.30;100.00
71974;BME280;59840;52.122;5.404;2023-03-03T00:44:42;102714.88;;;0.31;100.00
71974;BME280;59840;52.122;5.404;2023-03-03T00:52:38;102703.91;;;0.27;100.00
71974;BME280;59840;52.122;5.404;2023-03-03T00:55:06;102705.25;;;0.22;100.00
71974;BME280;59840;52.122;5.404;2023-03-03T00:57:33;102709.75;;;0.20;100.00
71974;BME280;59840;52.122;5.404;2023-03-03T01:00:00;102710.56;;;0.20;100.00
71974;BME280;59840;52.122;5.404;2023-03-03T01:02:26;102712.34;;;0.20;100.00
71974;BME280;59840;52.122;5.404;2023-03-03T01:04:53;102717.53;;;0.20;100.00
71974;BME280;59840;52.122;5.404;2023-03-03T01:07:23;102713.28;;;0.19;100.00
71974;BME280;59840;52.122;5.404;2023-03-03T01:09:50;102722.72;;;0.20;100.00
71974;BME280;59840;52.122;5.404;2023-03-03T01:12:17;102716.59;;;0.21;100.00
71974;BME280;59840;52.122;5.404;2023-03-03T01:14:43;102719.06;;;0.22;100.00
71974;BME280;59840;52.122;5.404;2023-03-03T01:17:10;102718.94;;;0.24;100.00
71974;BME280;59840;52.122;5.404;2023-03-03T01:19:37;102716.47;;;0.22;100.00
71974;BME280;59840;52.122;5.404;2023-03-03T01:22:03;102723.28;;;0.23;100.00
71974;BME280;59840;52.122;5.404;2023-03-03T01:24:30;102716.31;;;0.24;100.00
71974;BME280;59840;52.122;5.404;2023-03-03T01:26:57;102710.31;;;0.23;100.00
71974;BME280;59840;52.122;5.404;2023-03-03T01:29:23;102712.91;;;0.23;100.00
71974;BME280;59840;52.122;5.404;2023-03-03T01:31:50;102714.44;;;0.26;100.00
71974;BME280;59840;52.122;5.404;2023-03-03T01:34:16;102711.00;;;0.25;100.00
71974;BME280;59840;52.122;5.404;2023-03-03T01:36:43;102717.03;;;0.26;100.00
71974;BME280;59840;52.122;5.404;2023-03-03T01:39:10;102713.59;;;0.25;100.00
71974;BME280;59840;52.122;5.404;2023-03-03T01:41:37;102711.84;;;0.26;100.00
71974;BME280;59840;52.122;5.404;2023-03-03T01:44:04;102717.03;;;0.26;100.00
71974;BME280;59840;52.122;5.404;2023-03-03T01:52:40;102717.03;;;0.26;100.00
71974;BME280;59840;52.122;5.404;2023-03-03T01:55:32;102713.72;;;0.24;100.00
71974;BME280;59840;52.122;5.404;2023-03-03T01:58:19;102719.06;;;0.22;100.00
71974;BME280;59840;52.122;5.404;2023-03-03T02:00:50;102721.78;;;0.21;100.00
71974;BME280;59840;52.122;5.404;2023-03-03T02:03:19;102717.53;;;0.20;100.00
71974;BME280;59840;52.122;5.404;2023-03-03T02:05:50;102727.94;;;0.20;100.00
71974;BME280;59840;52.122;5.404;2023-03-03T02:08:21;102720.25;;;0.18;100.00
71974;BME280;59840;52.122;5.404;2023-03-03T02:10:50;102716.84;;;0.18;100.00
71974;BME280;59840;52.122;5.404;2023-03-03T02:13:16;102715.19;;;0.17;100.00
71974;BME280;59840;52.122;5.404;2023-03-03T02:15:43;102723.94;;;0.16;100.00
71974;BME280;59840;52.122;5.404;2023-03-03T02:18:12;102712.72;;;0.15;100.00
71974;BME280;59840;52.122;5.404;2023-03-03T02:26:08;102724.06;;;0.14;100.00
71974;BME280;59840;52.122;5.404;2023-03-03T02:28:37;102722.28;;;0.15;100.00
71974;BME280;59840;52.122;5.404;2023-03-03T02:31:07;102714.50;;;0.15;100.00
71974;BME280;59840;52.122;5.404;2023-03-03T02:33:41;102719.69;;;0.15;100.00
71974;BME280;59840;52.122;5.404;2023-03-03T02:36:18;102714.50;;;0.15;100.00
71974;BME280;59840;52.122;5.404;2023-03-03T02:38:50;102718.06;;;0.14;100.00
71974;BME280;59840;52.122;5.404;2023-03-03T02:44:14;102716.28;;;0.14;100.00
71974;BME280;59840;52.122;5.404;2023-03-03T02:46:44;102716.16;;;0.16;100.00
71974;BME280;59840;52.122;5.404;2023-03-03T02:49:12;102714.25;;;0.18;100.00
71974;BME280;59840;52.122;5.404;2023-03-03T02:51:39;102718.50;;;0.19;100.00
71974;BME280;59840;52.122;5.404;2023-03-03T02:54:07;102713.28;;;0.19;100.00
71974;BME280;59840;52.122;5.404;2023-03-03T02:56:34;102719.19;;;0.21;100.00
71974;BME280;59840;52.122;5.404;2023-03-03T02:59:01;102729.81;;;0.18;100.00
71974;BME280;59840;52.122;5.404;2023-03-03T03:01:28;102727.22;;;0.18;100.00
71974;BME280;59840;52.122;5.404;2023-03-03T03:03:57;102725.72;;;0.15;100.00
71974;BME280;59840;52.122;5.404;2023-03-03T03:06:24;102719.69;;;0.15;100.00
71974;BME280;59840;52.122;5.404;2023-03-03T03:08:50;102724.19;;;0.13;100.00
71974;BME280;59840;52.122;5.404;2023-03-03T03:11:17;102730.09;;;0.15;100.00
71974;BME280;59840;52.122;5.404;2023-03-03T03:13:43;102721.34;;;0.16;100.00
71974;BME280;59840;52.122;5.404;2023-03-03T03:16:10;102730.91;;;0.15;100.00
71974;BME280;59840;52.122;5.404;2023-03-03T03:18:37;102719.56;;;0.16;100.00
71974;BME280;59840;52.122;5.404;2023-03-03T03:21:11;102712.88;;;0.14;100.00
71974;BME280;59840;52.122;5.404;2023-03-03T03:23:39;102716.66;;;0.10;100.00
71974;BME280;59840;52.122;5.404;2023-03-03T03:26:06;102720.47;;;0.06;100.00
71974;BME280;59840;52.122;5.404;2023-03-03T03:28:33;102720.72;;;0.03;100.00
71974;BME280;59840;52.122;5.404;2023-03-03T03:31:01;102722.63;;;0.00;100.00
71974;BME280;59840;52.122;5.404;2023-03-03T03:33:28;102721.00;;;-0.01;100.00
71974;BME280;59840;52.122;5.404;2023-03-03T03:35:55;102718.41;;;-0.01;100.00
71974;BME280;59840;52.122;5.404;2023-03-03T03:38:23;102714.03;;;0.00;100.00
71974;BME280;59840;52.122;5.404;2023-03-03T03:40:51;102724.00;;;0.05;100.00
71974;BME280;59840;52.122;5.404;2023-03-03T03:43:17;102724.84;;;0.05;100.00
71974;BME280;59840;52.122;5.404;2023-03-03T03:45:44;102722.09;;;0.07;100.00
71974;BME280;59840;52.122;5.404;2023-03-03T03:48:11;102725.41;;;0.09;100.00
71974;BME280;59840;52.122;5.404;2023-03-03T03:50:38;102729.63;;;0.10;100.00
71974;BME280;59840;52.122;5.404;2023-03-03T03:53:05;102730.34;;;0.12;100.00
71974;BME280;59840;52.122;5.404;2023-03-03T03:55:32;102738.13;;;0.12;100.00
71974;BME280;59840;52.122;5.404;2023-03-03T03:57:59;102735.78;;;0.09;100.00
71974;BME280;59840;52.122;5.404;2023-03-03T04:00:25;102734.13;;;0.08;100.00
71974;BME280;59840;52.122;5.404;2023-03-03T04:02:52;102744.53;;;0.08;100.00
71974;BME280;59840;52.122;5.404;2023-03-03T04:05:19;102738.38;;;0.09;100.00
71974;BME280;59840;52.122;5.404;2023-03-03T04:07:46;102737.44;;;0.10;100.00
71974;BME280;59840;52.122;5.404;2023-03-03T04:10:13;102734.84;;;0.10;100.00
71974;BME280;59840;52.122;5.404;2023-03-03T04:12:39;102733.19;;;0.09;100.00
71974;BME280;59840;52.122;5.404;2023-03-03T04:15:11;102736.59;;;0.09;100.00
71974;BME280;59840;52.122;5.404;2023-03-03T04:17:39;102740.72;;;0.12;100.00
71974;BME280;59840;52.122;5.404;2023-03-03T04:20:06;102735.53;;;0.12;100.00
71974;BME280;59840;52.122;5.404;2023-03-03T04:22:33;102741.41;;;0.14;100.00
71974;BME280;59840;52.122;5.404;2023-03-03T04:25:02;102731.28;;;0.11;100.00
71974;BME280;59840;52.122;5.404;2023-03-03T04:27:31;102741.66;;;0.11;100.00
71974;BME280;59840;52.122;5.404;2023-03-03T04:30:00;102740.97;;;0.09;100.00
71974;BME280;59840;52.122;5.404;2023-03-03T04:32:26;102735.78;;;0.09;100.00
71974;BME280;59840;52.122;5.404;2023-03-03T04:34:54;102734.97;;;0.08;100.00
71974;BME280;59840;52.122;5.404;2023-03-03T04:37:32;102731.41;;;0.09;100.00
71974;BME280;59840;52.122;5.404;2023-03-03T04:39:58;102739.06;;;0.11;100.00
71974;BME280;59840;52.122;5.404;2023-03-03T04:42:25;102744.00;;;0.14;100.00
71974;BME280;59840;52.122;5.404;2023-03-03T04:44:53;102745.66;;;0.15;100.00
71974;BME280;59840;52.122;5.404;2023-03-03T04:47:20;102738.69;;;0.15;100.00
71974;BME280;59840;52.122;5.404;2023-03-03T04:49:47;102740.47;;;0.15;100.00
71974;BME280;59840;52.122;5.404;2023-03-03T04:52:13;102742.22;;;0.14;100.00
71974;BME280;59840;52.122;5.404;2023-03-03T04:54:40;102753.31;;;0.16;100.00
71974;BME280;59840;52.122;5.404;2023-03-03T04:57:06;102744.44;;;0.19;100.00
71974;BME280;59840;52.122;5.404;2023-03-03T04:59:34;102746.09;;;0.20;100.00
71974;BME280;59840;52.122;5.404;2023-03-03T05:02:01;102748.69;;;0.20;100.00
71974;BME280;59840;52.122;5.404;2023-03-03T05:04:30;102751.03;;;0.23;100.00
71974;BME280;59840;52.122;5.404;2023-03-03T05:06:57;102743.94;;;0.25;100.00
71974;BME280;59840;52.122;5.404;2023-03-03T05:09:23;102738.63;;;0.26;100.00
71974;BME280;59840;52.122;5.404;2023-03-03T05:11:50;102735.88;;;0.28;100.00
71974;BME280;59840;52.122;5.404;2023-03-03T05:14:17;102732.34;;;0.29;100.00
71974;BME280;59840;52.122;5.404;2023-03-03T05:16:43;102732.22;;;0.30;100.00
71974;BME280;59840;52.122;5.404;2023-03-03T05:19:10;102727.84;;;0.31;100.00
71974;BME280;59840;52.122;5.404;2023-03-03T05:21:37;102737.28;;;0.32;100.00
71974;BME280;59840;52.122;5.404;2023-03-03T05:24:09;102734.56;;;0.33;100.00
71974;BME280;59840;52.122;5.404;2023-03-03T05:26:36;102738.63;;;0.36;100.00
71974;BME280;59840;52.122;5.404;2023-03-03T05:29:03;102733.44;;;0.36;100.00
71974;BME280;59840;52.122;5.404;2023-03-03T05:31:30;102741.94;;;0.38;100.00
71974;BME280;59840;52.122;5.404;2023-03-03T05:33:56;102728.81;;;0.40;100.00
71974;BME280;59840;52.122;5.404;2023-03-03T05:36:23;102738.13;;;0.42;100.00
71974;BME280;59840;52.122;5.404;2023-03-03T05:38:50;102734.56;;;0.43;100.00
71974;BME280;59840;52.122;5.404;2023-03-03T05:41:17;102729.38;;;0.43;100.00
71974;BME280;59840;52.122;5.404;2023-03-03T05:43:44;102731.72;;;0.46;100.00
71974;BME280;59840;52.122;5.404;2023-03-03T05:46:10;102743.88;;;0.46;100.00
71974;BME280;59840;52.122;5.404;2023-03-03T05:48:37;102744.69;;;0.46;100.00
71974;BME280;59840;52.122;5.404;2023-03-03T05:51:03;102741.16;;;0.47;100.00
71974;BME280;59840;52.122;5.404;2023-03-03T05:53:30;102745.38;;;0.48;100.00
71974;BME280;59840;52.122;5.404;2023-03-03T05:55:57;102744.44;;;0.49;100.00
71974;BME280;59840;52.122;5.404;2023-03-03T05:58:23;102739.25;;;0.49;100.00
71974;BME280;59840;52.122;5.404;2023-03-03T06:00:50;102747.72;;;0.51;100.00
71974;BME280;59840;52.122;5.404;2023-03-03T06:03:17;102741.56;;;0.52;100.00
71974;BME280;59840;52.122;5.404;2023-03-03T06:05:44;102731.88;;;0.54;100.00
71974;BME280;59840;52.122;5.404;2023-03-03T06:08:10;102744.88;;;0.54;100.00
71974;BME280;59840;52.122;5.404;2023-03-03T06:10:37;102748.16;;;0.56;100.00
71974;BME280;59840;52.122;5.404;2023-03-03T06:13:03;102750.75;;;0.56;100.00
71974;BME280;59840;52.122;5.404;2023-03-03T06:15:30;102752.41;;;0.57;100.00
71974;BME280;59840;52.122;5.404;2023-03-03T06:17:57;102758.41;;;0.58;100.00
71974;BME280;59840;52.122;5.404;2023-03-03T06:20:23;102752.13;;;0.60;100.00
71974;BME280;59840;52.122;5.404;2023-03-03T06:22:50;102763.22;;;0.62;100.00
71974;BME280;59840;52.122;5.404;2023-03-03T06:25:16;102762.13;;;0.65;100.00
71974;BME280;59840;52.122;5.404;2023-03-03T06:27:43;102759.41;;;0.66;100.00
71974;BME280;59840;52.122;5.404;2023-03-03T06:30:10;102762.00;;;0.66;100.00
71974;BME280;59840;52.122;5.404;2023-03-03T06:32:38;102763.66;;;0.68;100.00
71974;BME280;59840;52.122;5.404;2023-03-03T06:35:05;102766.91;;;0.70;100.00
71974;BME280;59840;52.122;5.404;2023-03-03T06:37:32;102761.72;;;0.70;100.00
71974;BME280;59840;52.122;5.404;2023-03-03T06:39:59;102766.66;;;0.73;100.00
71974;BME280;59840;52.122;5.404;2023-03-03T06:42:26;102759.81;;;0.72;100.00
71974;BME280;59840;52.122;5.404;2023-03-03T06:44:52;102776.78;;;0.76;100.00
71974;BME280;59840;52.122;5.404;2023-03-03T06:47:19;102781.16;;;0.75;100.00
71974;BME280;59840;52.122;5.404;2023-03-03T06:49:45;102778.44;;;0.77;100.00
71974;BME280;59840;52.122;5.404;2023-03-03T06:52:16;102782.53;;;0.79;100.00
71974;BME280;59840;52.122;5.404;2023-03-03T06:54:44;102774.63;;;0.81;100.00
71974;BME280;59840;52.122;5.404;2023-03-03T06:57:31;102782.41;;;0.81;100.00
71974;BME280;59840;52.122;5.404;2023-03-03T07:00:15;102789.94;;;0.84;100.00
71974;BME280;59840;52.122;5.404;2023-03-03T07:02:41;102785.19;;;0.89;100.00
71974;BME280;59840;52.122;5.404;2023-03-03T07:05:14;102788.72;;;0.88;100.00
71974;BME280;59840;52.122;5.404;2023-03-03T07:07:43;102792.97;;;0.89;100.00
71974;BME280;59840;52.122;5.404;2023-03-03T07:10:30;102795.31;;;0.92;100.00
71974;BME280;59840;52.122;5.404;2023-03-03T07:13:01;102800.38;;;0.93;100.00
71974;BME280;59840;52.122;5.404;2023-03-03T07:15:33;102808.03;;;0.95;100.00
71974;BME280;59840;52.122;5.404;2023-03-03T07:18:01;102808.03;;;1.05;100.00
71974;BME280;59840;52.122;5.404;2023-03-03T07:20:34;102811.34;;;1.07;100.00
71974;BME280;59840;52.122;5.404;2023-03-03T07:23:20;102812.41;;;1.04;100.00
71974;BME280;59840;52.122;5.404;2023-03-03T07:25:46;102815.44;;;1.09;100.00
71974;BME280;59840;52.122;5.404;2023-03-03T07:28:23;102817.91;;;1.11;100.00
71974;BME280;59840;52.122;5.404;2023-03-03T07:30:52;102816.69;;;1.15;100.00
71974;BME280;59840;52.122;5.404;2023-03-03T07:33:33;102817.38;;;1.17;100.00
71974;BME280;59840;52.122;5.404;2023-03-03T07:36:01;102811.09;;;1.19;100.00
71974;BME280;59840;52.122;5.404;2023-03-03T07:38:41;102820.00;;;1.26;100.00
71974;BME280;59840;52.122;5.404;2023-03-03T07:41:16;102824.38;;;1.26;100.00
71974;BME280;59840;52.122;5.404;2023-03-03T07:43:51;102825.91;;;1.28;100.00
71974;BME280;59840;52.122;5.404;2023-03-03T07:46:39;102838.38;;;1.34;100.00
71974;BME280;59840;52.122;5.404;2023-03-03T07:49:20;102842.75;;;1.34;100.00
71974;BME280;59840;52.122;5.404;2023-03-03T07:51:57;102840.16;;;1.34;100.00
71974;BME280;59840;52.122;5.404;2023-03-03T07:57:20;102839.19;;;1.45;100.00
71974;BME280;59840;52.122;5.404;2023-03-03T08:02:55;102849.63;;;1.54;100.00
71974;BME280;59840;52.122;5.404;2023-03-03T08:05:43;102846.34;;;1.62;100.00
71974;BME280;59840;52.122;5.404;2023-03-03T08:08:31;102850.72;;;1.71;100.00
71974;BME280;59840;52.122;5.404;2023-03-03T08:11:00;102853.47;;;1.70;100.00
71974;BME280;59840;52.122;5.404;2023-03-03T08:16:23;102860.19;;;1.72;100.00
71974;BME280;59840;52.122;5.404;2023-03-03T08:18:52;102865.91;;;1.76;100.00
71974;BME280;59840;52.122;5.404;2023-03-03T08:21:20;102868.09;;;1.80;100.00
71974;BME280;59840;52.122;5.404;2023-03-03T08:23:47;102869.22;;;1.87;100.00
71974;BME280;59840;52.122;5.404;2023-03-03T08:26:18;102876.63;;;1.92;100.00
71974;BME280;59840;52.122;5.404;2023-03-03T08:28:45;102867.84;;;1.93;100.00
71974;BME280;59840;52.122;5.404;2023-03-03T08:31:12;102866.44;;;2.08;100.00
71974;BME280;59840;52.122;5.404;2023-03-03T08:33:56;102864.94;;;2.15;100.00
71974;BME280;59840;52.122;5.404;2023-03-03T08:36:22;102872.75;;;2.25;100.00
71974;BME280;59840;52.122;5.404;2023-03-03T08:38:49;102879.59;;;2.26;100.00
71974;BME280;59840;52.122;5.404;2023-03-03T08:41:16;102873.03;;;2.31;100.00
71974;BME280;59840;52.122;5.404;2023-03-03T08:43:42;102873.72;;;2.33;100.00
71974;BME280;59840;52.122;5.404;2023-03-03T08:46:10;102874.94;;;2.39;100.00
71974;BME280;59840;52.122;5.404;2023-03-03T08:48:37;102880.16;;;2.39;100.00
71974;BME280;59840;52.122;5.404;2023-03-03T08:51:04;102879.88;;;2.42;100.00
71974;BME280;59840;52.122;5.404;2023-03-03T08:53:31;102877.06;;;2.53;100.00
71974;BME280;59840;52.122;5.404;2023-03-03T08:56:00;102875.41;;;2.62;100.00
71974;BME280;59840;52.122;5.404;2023-03-03T08:58:26;102879.53;;;2.64;100.00
71974;BME280;59840;52.122;5.404;2023-03-03T09:01:01;102877.75;;;2.65;100.00
71974;BME280;59840;52.122;5.404;2023-03-03T09:03:27;102875.38;;;2.72;100.00
71974;BME280;59840;52.122;5.404;2023-03-03T09:05:55;102871.75;;;2.82;100.00
71974;BME280;59840;52.122;5.404;2023-03-03T09:08:22;102884.09;;;2.90;100.00
71974;BME280;59840;52.122;5.404;2023-03-03T09:10:48;102881.84;;;3.05;100.00
71974;BME280;59840;52.122;5.404;2023-03-03T09:13:17;102879.94;;;2.97;100.00
71974;BME280;59840;52.122;5.404;2023-03-03T09:15:45;102877.63;;;2.94;100.00
71974;BME280;59840;52.122;5.404;2023-03-03T09:18:19;102879.13;;;2.96;100.00
71974;BME280;59840;52.122;5.404;2023-03-03T09:20:50;102876.88;;;3.11;100.00
71974;BME280;59840;52.122;5.404;2023-03-03T09:28:36;102878.31;;;3.23;100.00
71974;BME280;59840;52.122;5.404;2023-03-03T09:31:23;102877.81;;;3.38;100.00
71974;BME280;59840;52.122;5.404;2023-03-03T09:33:50;102879.75;;;3.35;100.00
71974;BME280;59840;52.122;5.404;2023-03-03T09:36:26;102870.97;;;3.36;100.00
71974;BME280;59840;52.122;5.404;2023-03-03T09:38:54;102873.13;;;3.41;100.00
71974;BME280;59840;52.122;5.404;2023-03-03T09:41:43;102882.06;;;3.56;100.00
71974;BME280;59840;52.122;5.404;2023-03-03T09:50:05;102885.91;;;3.62;98.68
71974;BME280;59840;52.122;5.404;2023-03-03T10:06:32;102890.00;;;4.00;96.82
71974;BME280;59840;52.122;5.404;2023-03-03T10:09:26;102889.31;;;4.16;96.95
71974;BME280;59840;52.122;5.404;2023-03-03T10:12:17;102889.59;;;4.30;96.10
71974;BME280;59840;52.122;5.404;2023-03-03T10:39:56;102870.69;;;5.63;88.35
71974;BME280;59840;52.122;5.404;2023-03-03T10:42:35;102875.94;;;5.71;88.30
71974;BME280;59840;52.122;5.404;2023-03-03T10:45:18;102886.88;;;5.58;88.11
71974;BME280;59840;52.122;5.404;2023-03-03T10:48:14;102884.81;;;5.78;87.82
71974;BME280;59840;52.122;5.404;2023-03-03T10:55:25;102880.22;;;5.72;87.28
71974;BME280;59840;52.122;5.404;2023-03-03T11:01:13;102874.31;;;5.78;85.53
71974;BME280;59840;52.122;5.404;2023-03-03T11:06:33;102873.53;;;6.10;84.67
71974;BME280;59840;52.122;5.404;2023-03-03T11:09:32;102874.19;;;5.88;85.22
71974;BME280;59840;52.122;5.404;2023-03-03T11:15:12;102874.94;;;5.64;85.14
71974;BME280;59840;52.122;5.404;2023-03-03T11:20:30;102869.69;;;5.48;85.47
71974;BME280;59840;52.122;5.404;2023-03-03T11:23:41;102866.75;;;5.51;85.54
71974;BME280;59840;52.122;5.404;2023-03-03T11:26:25;102859.09;;;5.73;83.42
71974;BME280;59840;52.122;5.404;2023-03-03T11:32:09;102843.56;;;6.21;82.17
71974;BME280;59840;52.122;5.404;2023-03-03T11:38:05;102841.81;;;6.60;81.78
71974;BME280;59840;52.122;5.404;2023-03-03T11:40:41;102849.22;;;6.96;79.54
71974;BME280;59840;52.122;5.404;2023-03-03T11:43:21;102847.66;;;7.18;78.46
71974;BME280;59840;52.122;5.404;2023-03-03T11:46:06;102858.31;;;6.85;76.27
71974;BME280;59840;52.122;5.404;2023-03-03T11:48:57;102850.72;;;6.51;77.49
71974;BME280;59840;52.122;5.404;2023-03-03T11:51:48;102846.16;;;6.29;77.79
71974;BME280;59840;52.122;5.404;2023-03-03T11:54:48;102846.94;;;6.46;79.89
71974;BME280;59840;52.122;5.404;2023-03-03T11:57:37;102846.75;;;6.94;76.60
71974;BME280;59840;52.122;5.404;2023-03-03T12:00:16;102847.25;;;7.29;77.35
71974;BME280;59840;52.122;5.404;2023-03-03T12:10:55;102839.25;;;7.22;72.81
71974;BME280;59840;52.122;5.404;2023-03-03T12:13:37;102828.13;;;6.89;73.00
71974;BME280;59840;52.122;5.404;2023-03-03T12:16:24;102835.66;;;7.23;73.64
71974;BME280;59840;52.122;5.404;2023-03-03T12:27:51;102825.28;;;7.53;72.93
71974;BME280;59840;52.122;5.404;2023-03-03T12:35:55;102824.03;;;6.87;74.41
71974;BME280;59840;52.122;5.404;2023-03-03T12:38:28;102820.75;;;6.85;75.03
71974;BME280;59840;52.122;5.404;2023-03-03T12:46:42;102810.22;;;7.47;68.91
71974;BME280;59840;52.122;5.404;2023-03-03T12:49:10;102812.03;;;7.46;69.51
71974;BME280;59840;52.122;5.404;2023-03-03T12:51:41;102805.44;;;7.50;70.17
71974;BME280;59840;52.122;5.404;2023-03-03T13:02:40;102793.59;;;7.69;72.13
71974;BME280;59840;52.122;5.404;2023-03-03T13:05:28;102798.06;;;7.46;72.24
71974;BME280;59840;52.122;5.404;2023-03-03T13:10:48;102800.19;;;7.27;73.86
71974;BME280;59840;52.122;5.404;2023-03-03T13:16:21;102805.22;;;7.06;73.67
71974;BME280;59840;52.122;5.404;2023-03-03T13:19:08;102801.28;;;7.02;73.69
71974;BME280;59840;52.122;5.404;2023-03-03T13:21:41;102799.50;;;7.02;73.55
71974;BME280;59840;52.122;5.404;2023-03-03T13:27:42;102787.09;;;7.19;72.31
71974;BME280;59840;52.122;5.404;2023-03-03T13:30:22;102793.81;;;7.22;72.46
71974;BME280;59840;52.122;5.404;2023-03-03T13:35:57;102793.03;;;7.13;70.47
71974;BME280;59840;52.122;5.404;2023-03-03T13:38:41;102803.28;;;7.00;72.10
71974;BME280;59840;52.122;5.404;2023-03-03T13:43:59;102795.47;;;6.92;71.95
71974;BME280;59840;52.122;5.404;2023-03-03T13:46:40;102796.78;;;6.88;72.61
71974;BME280;59840;52.122;5.404;2023-03-03T14:00:02;102795.19;;;6.79;73.75
71974;BME280;59840;52.122;5.404;2023-03-03T14:02:56;102793.22;;;6.81;73.64
71974;BME280;59840;52.122;5.404;2023-03-03T14:10:56;102792.22;;;6.82;72.21
71974;BME280;59840;52.122;5.404;2023-03-03T14:13:33;102787.66;;;6.76;71.85
71974;BME280;59840;52.122;5.404;2023-03-03T14:16:15;102785.00;;;6.84;70.99
71974;BME280;59840;52.122;5.404;2023-03-03T14:18:54;102785.50;;;6.79;70.00
71974;BME280;59840;52.122;5.404;2023-03-03T14:21:41;102792.56;;;6.79;70.10
71974;BME280;59840;52.122;5.404;2023-03-03T14:24:16;102779.94;;;6.82;70.01
71974;BME280;59840;52.122;5.404;2023-03-03T14:26:48;102779.06;;;6.90;69.55
71974;BME280;59840;52.122;5.404;2023-03-03T14:32:01;102779.13;;;6.82;69.04
71974;BME280;59840;52.122;5.404;2023-03-03T14:34:39;102775.50;;;6.83;68.66
71974;BME280;59840;52.122;5.404;2023-03-03T14:37:41;102781.41;;;6.85;68.76
71974;BME280;59840;52.122;5.404;2023-03-03T14:42:37;102772.03;;;6.90;67.40
71974;BME280;59840;52.122;5.404;2023-03-03T14:45:38;102778.03;;;6.99;67.53
71974;BME280;59840;52.122;5.404;2023-03-03T14:48:17;102771.25;;;7.04;67.79
71974;BME280;59840;52.122;5.404;2023-03-03T14:50:48;102771.44;;;7.03;66.86
71974;BME280;59840;52.122;5.404;2023-03-03T14:55:47;102759.06;;;6.89;67.17
71974;BME280;59840;52.122;5.404;2023-03-03T14:58:39;102762.06;;;6.78;67.89
71974;BME280;59840;52.122;5.404;2023-03-03T15:01:29;102761.13;;;6.70;68.05
71974;BME280;59840;52.122;5.404;2023-03-03T15:04:01;102761.94;;;6.71;68.64
71974;BME280;59840;52.122;5.404;2023-03-03T15:11:57;102760.50;;;6.60;69.32
71974;BME280;59840;52.122;5.404;2023-03-03T15:14:30;102764.09;;;6.59;69.51
71974;BME280;59840;52.122;5.404;2023-03-03T15:17:39;102760.56;;;6.52;70.06
71974;BME280;59840;52.122;5.404;2023-03-03T15:22:48;102753.84;;;6.50;70.50
71974;BME280;59840;52.122;5.404;2023-03-03T15:31:00;102749.81;;;6.31;69.88
71974;BME280;59840;52.122;5.404;2023-03-03T15:33:41;102747.00;;;6.32;70.14
71974;BME280;59840;52.122;5.404;2023-03-03T15:39:24;102752.47;;;6.23;70.33
71974;BME280;59840;52.122;5.404;2023-03-03T15:42:04;102743.13;;;6.20;69.89
71974;BME280;59840;52.122;5.404;2023-03-03T15:47:30;102745.47;;;6.07;70.08
71974;BME280;59840;52.122;5.404;2023-03-03T15:56:15;102744.47;;;6.00;70.35
71974;BME280;59840;52.122;5.404;2023-03-03T16:01:40;102734.97;;;6.07;69.52
71974;BME280;59840;52.122;5.404;2023-03-03T16:04:10;102732.03;;;6.02;68.70
71974;BME280;59840;52.122;5.404;2023-03-03T16:06:55;102722.38;;;5.94;70.15
71974;BME280;59840;52.122;5.404;2023-03-03T16:10:02;102731.56;;;5.90;70.50
71974;BME280;59840;52.122;5.404;2023-03-03T16:15:58;102748.25;;;5.89;69.78
71974;BME280;59840;52.122;5.404;2023-03-03T16:21:21;102739.75;;;5.79;70.34
71974;BME280;59840;52.122;5.404;2023-03-03T16:23:50;102746.63;;;5.80;70.41
71974;BME280;59840;52.122;5.404;2023-03-03T16:32:20;102743.03;;;5.73;69.71
71974;BME280;59840;52.122;5.404;2023-03-03T16:34:59;102738.78;;;5.72;70.57
71974;BME280;59840;52.122;5.404;2023-03-03T16:37:31;102733.03;;;5.68;70.22
71974;BME280;59840;52.122;5.404;2023-03-03T16:42:30;102732.22;;;5.68;70.77
71974;BME280;59840;52.122;5.404;2023-03-03T16:45:21;102729.94;;;5.65;70.51
71974;BME280;59840;52.122;5.404;2023-03-03T16:55:56;102739.91;;;5.61;72.16
71974;BME280;59840;52.122;5.404;2023-03-03T17:01:18;102745.97;;;5.62;71.62
71974;BME280;59840;52.122;5.404;2023-03-03T17:03:57;102740.25;;;5.58;71.79
71974;BME280;59840;52.122;5.404;2023-03-03T17:06:39;102739.75;;;5.55;72.13
71974;BME280;59840;52.122;5.404;2023-03-03T17:09:35;102738.31;;;5.52;72.94
71974;BME280;59840;52.122;5.404;2023-03-03T17:14:58;102744.69;;;5.50;72.74